createdAt,value
2022-10-14T00:04:26.864Z,4.25
2022-10-14T00:18:26.893Z,4.80
2022-10-14T00:32:26.894Z,4.50
2022-10-14T00:46:26.880Z,4.80
2022-10-14T01:00:26.930Z,4.80
2022-10-14T01:14:26.882Z,4.90
2022-10-14T01:28:26.919Z,5.60
2022-10-14T01:42:26.925Z,5.60
2022-10-14T01:56:26.915Z,5.80
2022-10-14T02:10:27.026Z,5.60
2022-10-14T02:24:27.194Z,5.95
2022-10-14T02:38:27.203Z,6.20
2022-10-14T02:52:27.216Z,6.30
2022-10-14T03:06:27.223Z,6.70
2022-10-14T03:20:27.237Z,6.80
2022-10-14T03:34:27.225Z,6.70
2022-10-14T03:48:27.247Z,6.30
2022-10-14T04:02:27.555Z,6.70
2022-10-14T04:16:27.602Z,6.50
2022-10-14T04:30:27.950Z,6.50
2022-10-14T04:44:27.935Z,6.50
2022-10-14T04:58:27.947Z,6.60
2022-10-14T05:12:27.990Z,6.50
2022-10-14T05:27:28.092Z,7.40
2022-10-14T05:42:28.273Z,7.10
2022-10-14T05:57:28.378Z,6.80
2022-10-14T06:12:28.218Z,6.80
2022-10-14T06:27:28.209Z,6.80
2022-10-14T06:42:28.227Z,6.80
2022-10-14T06:57:28.223Z,6.80
2022-10-14T07:12:28.243Z,6.20
2022-10-14T07:27:28.367Z,6.50
2022-10-14T07:42:28.702Z,6.80
2022-10-14T07:57:28.764Z,6.50
2022-10-14T08:12:28.773Z,6.00
2022-10-14T08:27:28.774Z,6.50
2022-10-14T08:42:28.777Z,6.30
2022-10-14T08:57:28.784Z,6.50
2022-10-14T09:13:28.769Z,6.45
2022-10-14T09:28:28.838Z,6.60
2022-10-14T09:43:28.869Z,6.50
2022-10-14T09:58:28.823Z,6.90
2022-10-14T10:13:28.849Z,7.60
2022-10-14T10:28:29.012Z,8.00
2022-10-14T10:43:28.876Z,8.20
2022-10-14T10:48:14.755Z,8.10
2022-10-14T11:02:14.310Z,8.40
2022-10-14T11:17:14.891Z,8.60
2022-10-14T11:32:14.334Z,8.70
2022-10-14T11:47:14.357Z,8.70
2022-10-14T12:02:14.459Z,8.80
2022-10-14T12:17:16.005Z,9.30
2022-10-14T12:32:14.485Z,9.30
2022-10-14T12:48:14.800Z,9.30
2022-10-14T13:03:14.886Z,9.20
2022-10-14T13:18:14.712Z,9.10
2022-10-14T13:33:16.132Z,9.60
2022-10-14T13:48:16.508Z,9.70
2022-10-14T14:03:15.778Z,9.20
2022-10-14T14:18:15.756Z,8.90
2022-10-14T14:33:16.865Z,9.30
2022-10-14T14:48:15.199Z,9.30
2022-10-14T15:03:14.918Z,10.00
2022-10-14T15:19:14.940Z,9.90
2022-10-14T15:34:15.081Z,9.30
2022-10-14T15:49:15.091Z,9.00
2022-10-14T16:04:15.086Z,8.90
2022-10-14T16:19:15.094Z,9.00
2022-10-14T16:34:15.436Z,8.80
2022-10-14T16:49:15.415Z,9.00
2022-10-14T17:04:15.574Z,9.50
2022-10-14T17:18:17.657Z,8.60
2022-10-14T17:32:15.598Z,8.90
2022-10-14T17:46:15.615Z,8.80
2022-10-14T18:00:15.623Z,9.20
2022-10-14T18:14:15.657Z,46.60
2022-10-14T18:28:15.788Z,26.80
2022-10-14T18:42:17.112Z,26.60
2022-10-14T18:56:15.831Z,25.80
2022-10-14T19:10:15.838Z,25.10
2022-10-14T19:24:15.852Z,23.90
2022-10-14T19:38:15.960Z,23.60
2022-10-14T19:52:15.927Z,21.80
2022-10-14T20:06:15.932Z,21.30
2022-10-14T20:20:15.939Z,20.20
2022-10-14T20:34:15.934Z,19.40
2022-10-14T20:48:15.968Z,18.90
2022-10-14T21:02:15.952Z,17.20
2022-10-14T21:16:15.961Z,16.40
2022-10-14T21:30:15.981Z,15.80
2022-10-14T21:44:15.975Z,14.80
2022-10-14T21:58:16.021Z,14.30
2022-10-14T22:12:15.990Z,13.10
2022-10-14T22:26:15.994Z,12.30
2022-10-14T22:40:15.984Z,11.40
2022-10-14T22:54:15.990Z,11.10
2022-10-14T23:08:16.010Z,10.40
2022-10-14T23:22:15.970Z,9.20
2022-10-14T23:36:15.984Z,9.70
2022-10-14T23:50:16.007Z,9.60
